createdAt,value
2018-09-14T00:01:34.864Z,17.51
2018-09-14T00:04:01.848Z,17.26
2018-09-14T00:06:28.731Z,17.25
2018-09-14T00:08:55.627Z,17.17
2018-09-14T00:11:22.485Z,17.21
2018-09-14T00:13:49.457Z,17.30
2018-09-14T00:16:16.384Z,17.33
2018-09-14T00:18:43.348Z,17.33
2018-09-14T00:21:10.199Z,17.33
2018-09-14T00:23:37.205Z,17.21
2018-09-14T00:26:04.123Z,17.24
2018-09-14T00:28:32.011Z,17.29
2018-09-14T00:30:58.951Z,17.29
2018-09-14T00:33:25.915Z,17.46
2018-09-14T00:35:52.859Z,17.24
2018-09-14T00:38:19.909Z,17.26
2018-09-14T00:40:46.796Z,17.28
2018-09-14T00:43:14.023Z,17.21
2018-09-14T00:45:40.895Z,17.23
2018-09-14T00:48:07.852Z,16.94
2018-09-14T00:50:34.816Z,16.73
2018-09-14T00:53:01.783Z,16.62
2018-09-14T00:55:28.683Z,16.57
2018-09-14T00:57:55.596Z,16.51
2018-09-14T01:00:22.576Z,16.50
2018-09-14T01:02:49.498Z,16.42
2018-09-14T01:05:16.451Z,16.35
2018-09-14T01:07:43.443Z,16.38
2018-09-14T01:10:10.384Z,16.35
2018-09-14T01:12:37.341Z,16.35
2018-09-14T01:15:04.299Z,16.33
2018-09-14T01:17:31.149Z,16.29
2018-09-14T01:19:58.097Z,16.30
2018-09-14T01:22:25.120Z,16.30
2018-09-14T01:24:52.127Z,16.37
2018-09-14T01:27:18.970Z,16.43
2018-09-14T01:29:45.956Z,16.41
2018-09-14T01:32:12.913Z,16.44
2018-09-14T01:34:39.854Z,16.38
2018-09-14T01:37:06.796Z,16.46
2018-09-14T01:39:33.659Z,16.45
2018-09-14T01:42:00.632Z,16.50
2018-09-14T01:44:27.559Z,16.44
2018-09-14T01:46:54.423Z,16.41
2018-09-14T01:49:21.395Z,16.36
2018-09-14T01:51:48.270Z,16.36
2018-09-14T01:54:15.191Z,16.32
2018-09-14T01:56:42.153Z,16.25
2018-09-14T01:59:09.114Z,16.20
2018-09-14T02:01:36.100Z,16.23
2018-09-14T02:04:03.050Z,16.37
2018-09-14T02:06:29.984Z,16.35
2018-09-14T02:08:56.953Z,16.37
2018-09-14T02:11:23.904Z,16.36
2018-09-14T02:13:50.867Z,16.30
2018-09-14T02:16:17.811Z,16.25
2018-09-14T02:18:44.779Z,16.30
2018-09-14T02:21:11.719Z,16.30
2018-09-14T02:23:38.610Z,16.27
2018-09-14T02:26:05.767Z,16.29
2018-09-14T02:28:32.732Z,16.33
2018-09-14T02:30:59.672Z,16.31
2018-09-14T02:33:26.536Z,16.43
2018-09-14T02:35:53.527Z,16.47
2018-09-14T02:38:20.423Z,16.44
2018-09-14T02:40:47.384Z,16.46
2018-09-14T02:43:14.367Z,16.49
2018-09-14T02:45:41.397Z,16.56
2018-09-14T02:48:08.270Z,16.55
2018-09-14T02:50:35.216Z,16.70
2018-09-14T02:53:02.173Z,16.70
2018-09-14T02:55:29.144Z,16.86
2018-09-14T02:57:56.088Z,16.99
2018-09-14T03:00:23.055Z,16.90
2018-09-14T03:02:50.016Z,16.87
2018-09-14T03:05:16.955Z,16.81
2018-09-14T03:07:44.605Z,16.69
2018-09-14T03:10:11.503Z,16.82
2018-09-14T03:12:38.447Z,17.08
2018-09-14T03:15:05.489Z,16.84
2018-09-14T03:17:33.388Z,16.80
2018-09-14T03:20:00.354Z,16.82
2018-09-14T03:22:27.299Z,16.84
2018-09-14T03:24:54.254Z,16.85
2018-09-14T03:27:21.231Z,16.90
2018-09-14T03:29:48.212Z,16.89
2018-09-14T03:32:15.297Z,16.90
2018-09-14T03:34:42.195Z,16.84
2018-09-14T03:37:09.173Z,16.86
2018-09-14T03:39:36.109Z,16.79
2018-09-14T03:42:04.584Z,16.81
2018-09-14T03:44:31.463Z,16.69
2018-09-14T03:46:58.404Z,16.74
2018-09-14T03:49:25.404Z,16.72
2018-09-14T03:51:52.353Z,16.67
2018-09-14T03:54:19.345Z,16.73
2018-09-14T03:56:46.303Z,16.74
2018-09-14T03:59:13.208Z,16.73
2018-09-14T04:01:40.079Z,16.84
2018-09-14T04:04:07.197Z,16.70
2018-09-14T04:06:34.097Z,16.65
2018-09-14T04:09:01.173Z,16.66
2018-09-14T04:11:28.091Z,16.58
2018-09-14T04:13:55.062Z,16.46
2018-09-14T04:16:22.015Z,16.44
2018-09-14T04:18:53.864Z,16.45
2018-09-14T04:21:20.725Z,16.35
2018-09-14T04:23:47.709Z,16.41
2018-09-14T04:26:14.703Z,16.41
2018-09-14T04:28:41.610Z,16.28
2018-09-14T04:31:09.063Z,16.21
2018-09-14T04:33:35.972Z,16.22
2018-09-14T04:36:02.880Z,16.28
2018-09-14T04:38:29.929Z,16.27
2018-09-14T04:40:56.803Z,16.24
2018-09-14T04:43:24.715Z,16.12
2018-09-14T04:45:52.220Z,16.07
2018-09-14T04:48:19.133Z,16.08
2018-09-14T04:50:46.066Z,16.09
2018-09-14T04:53:13.073Z,16.03
2018-09-14T04:55:39.998Z,16.12
2018-09-14T04:58:06.939Z,16.04
2018-09-14T05:00:33.916Z,16.08
2018-09-14T05:03:00.910Z,16.02
2018-09-14T05:05:28.286Z,16.20
2018-09-14T05:07:55.336Z,16.07
2018-09-14T05:10:22.289Z,16.03
2018-09-14T05:12:49.210Z,15.95
2018-09-14T05:15:16.148Z,15.90
2018-09-14T05:17:43.111Z,15.89
2018-09-14T05:20:10.068Z,15.93
2018-09-14T05:22:37.049Z,15.98
2018-09-14T05:25:03.999Z,15.94
2018-09-14T05:27:30.834Z,16.01
2018-09-14T05:29:57.812Z,16.09
2018-09-14T05:32:24.772Z,16.02
2018-09-14T05:34:51.648Z,16.14
2018-09-14T05:37:18.563Z,16.20
2018-09-14T05:39:45.871Z,16.24
2018-09-14T05:42:12.800Z,16.22
2018-09-14T05:44:39.747Z,16.09
2018-09-14T05:47:07.095Z,16.07
2018-09-14T05:49:33.938Z,16.12
2018-09-14T05:52:00.843Z,16.12
2018-09-14T05:54:27.798Z,16.13
2018-09-14T05:56:54.856Z,16.11
2018-09-14T05:59:21.747Z,16.17
2018-09-14T06:01:48.663Z,16.39
2018-09-14T06:04:15.608Z,16.18
2018-09-14T06:06:42.641Z,16.29
2018-09-14T06:09:11.078Z,16.34
2018-09-14T06:11:37.919Z,16.44
2018-09-14T06:14:04.880Z,16.42
2018-09-14T06:16:31.827Z,16.40
2018-09-14T06:18:58.779Z,16.31
2018-09-14T06:21:25.744Z,16.48
2018-09-14T06:23:52.743Z,16.49
2018-09-14T06:26:19.747Z,16.63
2018-09-14T06:28:47.271Z,16.76
2018-09-14T06:31:14.204Z,16.72
2018-09-14T06:33:41.175Z,16.71
2018-09-14T06:36:08.231Z,16.63
2018-09-14T06:38:35.204Z,16.53
2018-09-14T06:41:02.141Z,16.55
2018-09-14T06:43:29.111Z,16.60
2018-09-14T06:45:56.090Z,16.57
2018-09-14T06:48:22.992Z,16.70
2018-09-14T06:50:49.954Z,16.72
2018-09-14T06:53:17.009Z,16.77
2018-09-14T06:55:43.906Z,16.80
2018-09-14T06:58:10.856Z,16.77
2018-09-14T07:00:37.783Z,16.67
2018-09-14T07:03:04.745Z,16.82
2018-09-14T07:05:31.744Z,16.95
2018-09-14T07:07:58.611Z,16.99
2018-09-14T07:10:25.515Z,17.27
2018-09-14T07:12:54.389Z,17.17
2018-09-14T07:15:21.595Z,17.07
2018-09-14T07:17:48.531Z,17.12
2018-09-14T07:20:15.493Z,17.22
2018-09-14T07:22:42.451Z,17.30
2018-09-14T07:25:09.440Z,17.42
2018-09-14T07:27:36.376Z,17.40
2018-09-14T07:30:03.683Z,17.40
2018-09-14T07:32:30.595Z,17.22
2018-09-14T07:34:57.534Z,17.29
2018-09-14T07:37:24.431Z,17.15
2018-09-14T07:39:51.375Z,17.17
2018-09-14T07:42:18.361Z,17.07
2018-09-14T07:44:45.272Z,17.14
2018-09-14T07:47:12.222Z,17.12
2018-09-14T07:49:39.260Z,17.21
2018-09-14T07:52:06.350Z,17.15
2018-09-14T07:54:33.343Z,17.24
2018-09-14T07:57:01.289Z,17.30
2018-09-14T07:59:28.256Z,17.43
2018-09-14T08:01:55.268Z,17.53
2018-09-14T08:04:22.163Z,17.59
2018-09-14T08:06:49.123Z,17.53
2018-09-14T08:09:15.995Z,17.51
2018-09-14T08:11:42.980Z,17.56
2018-09-14T08:14:10.607Z,17.80
2018-09-14T08:16:37.788Z,17.78
2018-09-14T08:19:05.120Z,17.84
2018-09-14T08:21:32.125Z,17.93
2018-09-14T08:23:59.057Z,17.97
2018-09-14T08:26:26.005Z,17.98
2018-09-14T08:28:52.871Z,18.02
2018-09-14T08:31:19.731Z,18.02
2018-09-14T08:33:46.683Z,18.29
2018-09-14T08:36:13.735Z,18.35
2018-09-14T08:38:40.594Z,18.49
2018-09-14T08:41:07.547Z,18.76
2018-09-14T08:43:34.528Z,18.87
2018-09-14T08:46:01.499Z,19.14
2018-09-14T08:48:28.404Z,19.30
2018-09-14T08:50:55.319Z,19.19
2018-09-14T08:53:22.243Z,19.21
2018-09-14T08:55:49.236Z,19.18
2018-09-14T08:58:16.251Z,19.25
2018-09-14T09:00:43.154Z,19.69
2018-09-14T09:03:10.055Z,19.50
2018-09-14T09:05:37.018Z,18.95
2018-09-14T09:08:04.004Z,19.12
2018-09-14T09:10:31.814Z,19.26
2018-09-14T09:12:58.711Z,19.44
2018-09-14T09:15:25.663Z,19.35
2018-09-14T09:17:52.673Z,19.37
2018-09-14T09:20:19.575Z,19.48
2018-09-14T09:22:46.550Z,19.55
2018-09-14T09:25:13.505Z,19.62
2018-09-14T09:27:40.459Z,19.69
2018-09-14T09:30:07.437Z,19.70
2018-09-14T09:32:34.292Z,19.70
2018-09-14T09:35:01.295Z,19.85
2018-09-14T09:37:28.211Z,19.85
2018-09-14T09:39:55.143Z,20.09
2018-09-14T09:42:22.016Z,20.07
2018-09-14T09:44:48.966Z,20.16
2018-09-14T09:47:15.836Z,20.38
2018-09-14T09:49:42.788Z,20.52
2018-09-14T09:52:09.770Z,20.19
2018-09-14T09:54:36.690Z,20.39
2018-09-14T09:57:03.683Z,20.90
2018-09-14T09:59:30.599Z,21.09
2018-09-14T10:02:03.380Z,21.65
2018-09-14T10:04:55.831Z,21.05
2018-09-14T10:07:25.029Z,21.29
2018-09-14T10:09:51.857Z,21.53
2018-09-14T10:12:18.851Z,21.96
2018-09-14T10:14:45.819Z,21.82
2018-09-14T10:17:12.788Z,22.00
2018-09-14T10:19:39.730Z,21.92
2018-09-14T10:22:06.709Z,21.85
2018-09-14T10:24:33.667Z,22.03
2018-09-14T10:27:00.648Z,22.28
2018-09-14T10:29:27.563Z,22.39
2018-09-14T10:31:54.523Z,22.67
2018-09-14T10:34:21.387Z,22.11
2018-09-14T10:36:48.283Z,22.03
2018-09-14T10:39:15.217Z,21.95
2018-09-14T10:41:42.160Z,22.65
2018-09-14T10:44:09.027Z,22.36
2018-09-14T10:46:35.887Z,22.35
2018-09-14T10:49:02.842Z,22.40
2018-09-14T10:51:29.803Z,22.17
2018-09-14T10:53:56.763Z,22.21
2018-09-14T10:56:23.712Z,22.20
2018-09-14T10:58:50.609Z,22.25
2018-09-14T11:01:17.503Z,22.37
2018-09-14T11:03:44.717Z,21.98
2018-09-14T11:06:12.455Z,22.43
2018-09-14T11:08:39.395Z,22.82
2018-09-14T11:11:06.368Z,22.81
2018-09-14T11:13:33.313Z,22.76
2018-09-14T11:16:00.280Z,22.86
2018-09-14T11:18:27.447Z,22.76
2018-09-14T11:20:54.340Z,22.37
2018-09-14T11:23:21.323Z,22.37
2018-09-14T11:25:48.259Z,22.56
2018-09-14T11:28:15.195Z,22.85
2018-09-14T11:30:42.221Z,23.02
2018-09-14T11:33:09.207Z,23.48
2018-09-14T11:35:36.141Z,23.50
2018-09-14T11:38:03.229Z,23.12
2018-09-14T11:40:30.083Z,23.03
2018-09-14T11:42:57.164Z,23.67
2018-09-14T11:45:24.179Z,23.81
2018-09-14T11:47:51.064Z,23.78
2018-09-14T11:50:17.982Z,23.49
2018-09-14T11:52:44.834Z,23.72
2018-09-14T11:55:11.810Z,23.23
2018-09-14T11:57:38.876Z,22.72
2018-09-14T12:00:05.762Z,23.08
2018-09-14T12:02:32.646Z,23.42
2018-09-14T12:04:59.534Z,23.52
2018-09-14T12:07:26.492Z,23.91
2018-09-14T12:09:53.496Z,23.71
2018-09-14T12:12:20.372Z,23.73
2018-09-14T12:14:47.260Z,23.16
2018-09-14T12:17:14.264Z,23.25
2018-09-14T12:19:41.196Z,23.35
2018-09-14T12:22:08.224Z,23.63
2018-09-14T12:24:35.080Z,23.45
2018-09-14T12:27:02.040Z,23.78
2018-09-14T12:29:29.007Z,24.00
2018-09-14T12:31:55.967Z,24.05
2018-09-14T12:34:22.907Z,24.02
2018-09-14T12:36:49.871Z,24.26
2018-09-14T12:39:16.831Z,24.27
2018-09-14T12:41:43.803Z,23.90
2018-09-14T12:44:10.672Z,24.53
2018-09-14T12:46:37.588Z,24.53
2018-09-14T12:49:04.556Z,23.65
2018-09-14T12:51:32.342Z,22.81
2018-09-14T12:53:59.220Z,22.46
2018-09-14T12:56:26.206Z,22.79
2018-09-14T12:58:53.107Z,23.11
2018-09-14T13:01:20.107Z,23.22
2018-09-14T13:03:47.143Z,23.17
2018-09-14T13:06:14.116Z,23.04
2018-09-14T13:08:41.053Z,22.88
2018-09-14T13:11:07.996Z,23.26
2018-09-14T13:13:34.947Z,22.54
2018-09-14T13:16:02.823Z,22.57
2018-09-14T13:18:29.810Z,22.66
2018-09-14T13:20:56.739Z,22.83
2018-09-14T13:23:23.707Z,22.84
2018-09-14T13:25:50.701Z,22.76
2018-09-14T13:28:17.615Z,23.03
2018-09-14T13:30:44.624Z,22.98
2018-09-14T13:33:11.531Z,23.32
2018-09-14T13:35:38.516Z,23.59
2018-09-14T13:38:05.451Z,23.67
2018-09-14T13:40:32.425Z,23.58
2018-09-14T13:42:59.397Z,23.29
2018-09-14T13:45:26.328Z,23.61
2018-09-14T13:47:53.359Z,23.66
2018-09-14T13:50:20.244Z,23.60
2018-09-14T13:52:47.291Z,23.67
2018-09-14T13:55:14.155Z,24.34
2018-09-14T13:57:41.115Z,24.65
2018-09-14T14:00:08.063Z,24.31
2018-09-14T14:02:35.018Z,24.49
2018-09-14T14:05:02.030Z,24.61
2018-09-14T14:07:28.928Z,24.48
2018-09-14T14:09:55.888Z,24.50
2018-09-14T14:12:22.848Z,24.70
2018-09-14T14:14:49.799Z,24.80
2018-09-14T14:17:16.872Z,24.47
2018-09-14T14:19:43.667Z,24.24
2018-09-14T14:22:10.600Z,24.52
2018-09-14T14:24:37.481Z,24.80
2018-09-14T14:27:04.401Z,24.41
2018-09-14T14:29:31.260Z,24.28
2018-09-14T14:31:58.195Z,24.17
2018-09-14T14:34:25.243Z,24.01
2018-09-14T14:36:52.115Z,23.82
2018-09-14T14:39:19.088Z,23.89
2018-09-14T14:41:45.960Z,23.54
2018-09-14T14:44:12.912Z,23.48
2018-09-14T14:46:39.875Z,23.42
2018-09-14T14:49:06.832Z,23.71
2018-09-14T14:51:33.687Z,23.61
2018-09-14T14:54:00.610Z,23.75
2018-09-14T14:56:27.682Z,24.11
2018-09-14T14:58:54.630Z,24.33
2018-09-14T15:01:21.807Z,24.22
2018-09-14T15:03:48.743Z,24.21
2018-09-14T15:06:15.705Z,23.71
2018-09-14T15:08:42.678Z,24.10
2018-09-14T15:11:09.671Z,23.61
2018-09-14T15:13:36.564Z,24.05
2018-09-14T15:16:03.435Z,24.04
2018-09-14T15:18:30.415Z,24.22
2018-09-14T15:20:57.368Z,24.14
2018-09-14T15:23:24.224Z,23.81
2018-09-14T15:25:51.184Z,23.84
2018-09-14T15:28:18.247Z,23.71
2018-09-14T15:30:46.309Z,23.98
2018-09-14T15:33:12.955Z,23.98
2018-09-14T15:35:39.906Z,24.12
2018-09-14T15:38:06.767Z,24.26
2018-09-14T15:40:33.755Z,24.05
2018-09-14T15:43:00.693Z,23.91
2018-09-14T15:45:27.668Z,23.79
2018-09-14T15:47:54.627Z,23.62
2018-09-14T15:50:21.584Z,23.67
2018-09-14T15:52:48.574Z,23.89
2018-09-14T15:55:15.504Z,23.94
2018-09-14T15:57:42.550Z,24.04
2018-09-14T16:00:09.435Z,24.24
2018-09-14T16:02:36.399Z,23.71
2018-09-14T16:05:03.494Z,23.84
2018-09-14T16:07:30.419Z,23.56
2018-09-14T16:09:57.324Z,23.44
2018-09-14T16:12:24.327Z,23.12
2018-09-14T16:14:51.347Z,23.12
2018-09-14T16:17:18.223Z,22.98
2018-09-14T16:19:45.223Z,22.87
2018-09-14T16:22:12.179Z,22.70
2018-09-14T16:24:39.084Z,22.93
2018-09-14T16:27:06.387Z,22.73
2018-09-14T16:29:33.291Z,22.96
2018-09-14T16:32:00.168Z,22.66
2018-09-14T16:34:27.120Z,22.51
2018-09-14T16:36:54.084Z,22.55
2018-09-14T16:39:21.019Z,22.61
2018-09-14T16:41:47.900Z,22.33
2018-09-14T16:44:18.624Z,22.42
2018-09-14T16:46:45.581Z,22.28
2018-09-14T16:49:12.835Z,22.33
2018-09-14T16:51:39.886Z,22.06
2018-09-14T16:54:06.695Z,22.04
2018-09-14T16:56:33.627Z,21.86
2018-09-14T16:59:00.651Z,22.12
2018-09-14T17:01:27.622Z,22.00
2018-09-14T17:03:54.778Z,21.99
2018-09-14T17:06:21.800Z,22.05
2018-09-14T17:08:48.755Z,22.01
2018-09-14T17:11:15.687Z,21.84
2018-09-14T17:13:42.901Z,21.89
2018-09-14T17:16:09.768Z,21.96
2018-09-14T17:18:36.728Z,21.93
2018-09-14T17:21:03.750Z,21.61
2018-09-14T17:23:30.639Z,21.59
2018-09-14T17:25:57.780Z,21.68
2018-09-14T17:28:24.719Z,21.65
2018-09-14T17:30:51.644Z,21.51
2018-09-14T17:33:18.601Z,22.03
2018-09-14T17:35:45.551Z,21.58
2018-09-14T17:38:12.525Z,21.54
2018-09-14T17:40:39.484Z,21.57
2018-09-14T17:43:06.504Z,21.63
2018-09-14T17:45:33.471Z,21.52
2018-09-14T17:48:00.344Z,21.51
2018-09-14T17:50:27.283Z,21.42
2018-09-14T17:52:54.258Z,21.46
2018-09-14T17:55:21.255Z,21.30
2018-09-14T17:57:48.248Z,21.12
2018-09-14T18:00:15.356Z,21.16
2018-09-14T18:02:42.192Z,21.28
2018-09-14T18:05:09.135Z,21.33
2018-09-14T18:07:36.116Z,21.36
2018-09-14T18:10:03.092Z,21.40
2018-09-14T18:12:30.090Z,21.26
2018-09-14T18:14:57.066Z,21.58
2018-09-14T18:17:24.037Z,21.07
2018-09-14T18:19:51.055Z,21.03
2018-09-14T18:22:18.186Z,20.95
2018-09-14T18:24:45.132Z,20.82
2018-09-14T18:27:12.583Z,20.67
2018-09-14T18:29:39.564Z,20.72
2018-09-14T18:32:06.679Z,20.60
2018-09-14T18:34:33.685Z,20.58
2018-09-14T18:37:00.911Z,20.58
2018-09-14T18:39:27.918Z,20.55
2018-09-14T18:41:54.911Z,20.39
2018-09-14T18:44:22.279Z,20.41
2018-09-14T18:46:49.400Z,20.36
2018-09-14T18:49:16.391Z,20.38
2018-09-14T18:51:43.389Z,20.28
2018-09-14T18:54:10.483Z,20.30
2018-09-14T18:56:37.484Z,20.23
2018-09-14T18:59:04.640Z,20.23
2018-09-14T19:01:31.720Z,20.25
2018-09-14T19:03:58.735Z,20.27
2018-09-14T19:06:25.784Z,20.26
2018-09-14T19:08:52.771Z,20.14
2018-09-14T19:11:19.879Z,20.41
2018-09-14T19:13:46.911Z,20.28
2018-09-14T19:16:14.000Z,20.28
2018-09-14T19:18:41.051Z,20.23
2018-09-14T19:21:08.244Z,20.24
2018-09-14T19:23:35.357Z,20.33
2018-09-14T19:26:02.420Z,20.29
2018-09-14T19:28:29.471Z,20.28
2018-09-14T19:30:56.530Z,20.31
2018-09-14T19:33:23.591Z,20.31
2018-09-14T19:35:50.696Z,20.37
2018-09-14T19:38:18.589Z,20.27
2018-09-14T19:40:45.668Z,20.13
2018-09-14T19:43:12.851Z,20.21
2018-09-14T19:45:39.939Z,20.32
2018-09-14T19:48:06.988Z,20.20
2018-09-14T19:50:34.064Z,20.24
2018-09-14T19:53:01.143Z,20.19
2018-09-14T19:55:28.166Z,20.20
2018-09-14T19:57:55.203Z,20.21
2018-09-14T20:00:22.279Z,20.19
2018-09-14T20:02:49.321Z,20.19
2018-09-14T20:05:16.367Z,20.15
2018-09-14T20:07:43.384Z,19.74
2018-09-14T20:10:10.371Z,19.83
2018-09-14T20:12:37.308Z,19.68
2018-09-14T20:15:05.259Z,19.75
2018-09-14T20:17:32.290Z,20.20
2018-09-14T20:19:59.165Z,19.96
2018-09-14T20:22:26.175Z,19.99
2018-09-14T20:24:53.109Z,19.74
2018-09-14T20:27:20.088Z,20.05
2018-09-14T20:29:47.061Z,19.36
2018-09-14T20:32:13.972Z,19.27
2018-09-14T20:34:40.916Z,19.18
2018-09-14T20:37:07.933Z,19.02
2018-09-14T20:39:34.824Z,19.02
2018-09-14T20:42:01.808Z,19.03
2018-09-14T20:44:28.780Z,19.00
2018-09-14T20:46:55.783Z,18.93
2018-09-14T20:49:22.940Z,18.93
2018-09-14T20:51:49.863Z,18.98
2018-09-14T20:54:16.759Z,18.94
2018-09-14T20:56:43.776Z,18.93
2018-09-14T20:59:10.707Z,18.93
2018-09-14T21:01:37.651Z,18.94
2018-09-14T21:04:04.670Z,18.87
2018-09-14T21:06:31.563Z,18.90
2018-09-14T21:08:58.573Z,19.13
2018-09-14T21:11:25.511Z,19.21
2018-09-14T21:13:52.460Z,19.74
2018-09-14T21:16:19.391Z,20.01
2018-09-14T21:18:46.360Z,19.48
2018-09-14T21:21:13.319Z,19.38
2018-09-14T21:23:40.305Z,19.56
2018-09-14T21:26:07.218Z,19.44
2018-09-14T21:28:34.167Z,19.47
2018-09-14T21:31:01.127Z,19.14
2018-09-14T21:33:27.988Z,19.18
2018-09-14T21:35:54.968Z,19.07
2018-09-14T21:38:21.939Z,18.89
2018-09-14T21:40:48.855Z,18.73
2018-09-14T21:43:15.823Z,18.74
2018-09-14T21:45:42.813Z,18.71
2018-09-14T21:48:09.711Z,18.79
2018-09-14T21:50:36.663Z,19.07
2018-09-14T21:53:03.551Z,19.62
2018-09-14T21:55:30.521Z,19.23
2018-09-14T21:57:57.482Z,19.32
2018-09-14T22:00:31.106Z,19.23
2018-09-14T22:02:58.031Z,19.14
2018-09-14T22:05:24.999Z,19.16
2018-09-14T22:07:51.947Z,19.14
2018-09-14T22:10:18.811Z,19.08
2018-09-14T22:12:45.755Z,19.13
2018-09-14T22:15:12.756Z,19.05
2018-09-14T22:17:39.680Z,18.91
2018-09-14T22:20:06.531Z,18.75
2018-09-14T22:22:33.487Z,18.48
2018-09-14T22:25:00.443Z,18.49
2018-09-14T22:27:27.448Z,18.46
2018-09-14T22:29:54.319Z,18.49
2018-09-14T22:32:21.224Z,18.39
2018-09-14T22:34:48.359Z,18.47
2018-09-14T22:37:15.275Z,18.47
2018-09-14T22:39:42.291Z,18.37
2018-09-14T22:42:09.228Z,18.30
2018-09-14T22:44:36.141Z,18.22
2018-09-14T22:47:03.091Z,18.12
2018-09-14T22:49:30.087Z,18.11
2018-09-14T22:51:57.047Z,18.15
2018-09-14T22:54:24.068Z,18.13
2018-09-14T22:56:51.003Z,18.17
2018-09-14T22:59:17.971Z,18.16
2018-09-14T23:01:44.924Z,18.04
2018-09-14T23:04:11.779Z,18.10
2018-09-14T23:06:38.719Z,17.95
2018-09-14T23:09:06.558Z,18.09
2018-09-14T23:11:33.600Z,18.01
2018-09-14T23:14:00.510Z,18.14
2018-09-14T23:16:27.366Z,18.10
2018-09-14T23:18:54.331Z,18.23
2018-09-14T23:21:21.290Z,18.15
2018-09-14T23:23:48.254Z,17.94
2018-09-14T23:26:18.354Z,17.82
2018-09-14T23:28:45.226Z,17.93
2018-09-14T23:31:12.198Z,17.77
2018-09-14T23:33:39.153Z,17.86
2018-09-14T23:36:06.106Z,17.88
2018-09-14T23:38:33.103Z,17.88
2018-09-14T23:41:00.023Z,17.98
2018-09-14T23:43:27.000Z,18.34
2018-09-14T23:45:53.936Z,17.99
2018-09-14T23:48:20.927Z,18.33
2018-09-14T23:50:47.842Z,18.13
2018-09-14T23:53:14.837Z,18.16
2018-09-14T23:55:41.791Z,18.28
2018-09-14T23:58:08.754Z,18.25
